sensor_id;sensor_type;location;lat;lon;timestamp;pressure;altitude;pressure_sealevel;temperature;humidity
69909;BME280;57190;47.918;8.112;2022-08-01T00:00:24;91147.06;;;17.52;56.38
69909;BME280;57190;47.918;8.112;2022-08-01T00:02:49;91146.09;;;17.48;56.43
69909;BME280;57190;47.918;8.112;2022-08-01T00:05:15;91145.38;;;17.42;56.85
69909;BME280;57190;47.918;8.112;2022-08-01T00:07:40;91145.00;;;17.49;56.64
69909;BME280;57190;47.918;8.112;2022-08-01T00:10:13;91145.38;;;17.56;56.82
69909;BME280;57190;47.918;8.112;2022-08-01T00:12:39;91147.75;;;17.58;56.38
69909;BME280;57190;47.918;8.112;2022-08-01T00:15:07;91146.34;;;17.60;56.55
69909;BME280;57190;47.918;8.112;2022-08-01T00:17:33;91141.47;;;17.63;56.28
69909;BME280;57190;47.918;8.112;2022-08-01T00:19:59;91138.94;;;17.66;56.13
69909;BME280;57190;47.918;8.112;2022-08-01T00:22:24;91140.25;;;17.69;56.47
69909;BME280;57190;47.918;8.112;2022-08-01T00:24:50;91143.25;;;17.67;56.21
69909;BME280;57190;47.918;8.112;2022-08-01T00:27:16;91138.19;;;17.52;56.81
69909;BME280;57190;47.918;8.112;2022-08-01T00:29:41;91137.09;;;17.39;57.10
69909;BME280;57190;47.918;8.112;2022-08-01T00:32:07;91144.50;;;17.33;57.35
69909;BME280;57190;47.918;8.112;2022-08-01T00:34:33;91148.09;;;17.28;57.79
69909;BME280;57190;47.918;8.112;2022-08-01T00:36:58;91148.81;;;17.20;58.02
69909;BME280;57190;47.918;8.112;2022-08-01T00:39:24;91149.09;;;17.19;57.92
69909;BME280;57190;47.918;8.112;2022-08-01T00:41:49;91138.22;;;17.10;58.10
69909;BME280;57190;47.918;8.112;2022-08-01T00:44:15;91142.81;;;17.09;57.96
69909;BME280;57190;47.918;8.112;2022-08-01T00:46:41;91144.81;;;17.04;58.17
69909;BME280;57190;47.918;8.112;2022-08-01T00:49:07;91147.09;;;16.96;58.66
69909;BME280;57190;47.918;8.112;2022-08-01T00:51:33;91136.91;;;16.93;58.71
69909;BME280;57190;47.918;8.112;2022-08-01T00:53:59;91147.69;;;16.93;58.57
69909;BME280;57190;47.918;8.112;2022-08-01T00:56:26;91143.38;;;16.92;58.84
69909;BME280;57190;47.918;8.112;2022-08-01T00:58:52;91146.94;;;16.88;58.82
69909;BME280;57190;47.918;8.112;2022-08-01T01:01:18;91138.66;;;16.84;58.83
69909;BME280;57190;47.918;8.112;2022-08-01T01:03:46;91149.25;;;16.80;58.63
69909;BME280;57190;47.918;8.112;2022-08-01T01:08:43;91137.56;;;16.71;59.52
69909;BME280;57190;47.918;8.112;2022-08-01T01:11:22;91142.94;;;16.71;59.05
69909;BME280;57190;47.918;8.112;2022-08-01T01:13:54;91133.28;;;16.70;59.38
69909;BME280;57190;47.918;8.112;2022-08-01T01:16:22;91139.28;;;16.67;59.28
69909;BME280;57190;47.918;8.112;2022-08-01T01:18:59;91143.63;;;16.63;59.54
69909;BME280;57190;47.918;8.112;2022-08-01T01:21:47;91141.72;;;16.49;59.70
69909;BME280;57190;47.918;8.112;2022-08-01T01:27:21;91146.50;;;16.39;60.34
69909;BME280;57190;47.918;8.112;2022-08-01T01:29:54;91146.50;;;16.39;60.18
69909;BME280;57190;47.918;8.112;2022-08-01T01:32:35;91143.59;;;16.35;60.07
69909;BME280;57190;47.918;8.112;2022-08-01T01:35:07;91140.69;;;16.31;60.34
69909;BME280;57190;47.918;8.112;2022-08-01T01:37:35;91147.69;;;16.32;60.13
69909;BME280;57190;47.918;8.112;2022-08-01T01:40:04;91141.84;;;16.25;60.68
69909;BME280;57190;47.918;8.112;2022-08-01T01:42:31;91138.47;;;16.19;60.82
69909;BME280;57190;47.918;8.112;2022-08-01T01:44:58;91138.84;;;16.13;60.78
69909;BME280;57190;47.918;8.112;2022-08-01T01:47:25;91138.41;;;16.06;60.89
69909;BME280;57190;47.918;8.112;2022-08-01T01:49:53;91140.59;;;16.03;61.15
69909;BME280;57190;47.918;8.112;2022-08-01T01:52:21;91140.09;;;16.01;61.01
69909;BME280;57190;47.918;8.112;2022-08-01T01:54:50;91137.13;;;16.03;61.09
69909;BME280;57190;47.918;8.112;2022-08-01T01:57:18;91139.66;;;15.94;61.38
69909;BME280;57190;47.918;8.112;2022-08-01T01:59:45;91142.44;;;15.89;61.94
69909;BME280;57190;47.918;8.112;2022-08-01T02:02:12;91139.44;;;15.91;61.57
69909;BME280;57190;47.918;8.112;2022-08-01T02:04:45;91137.06;;;15.89;61.61
69909;BME280;57190;47.918;8.112;2022-08-01T02:07:22;91138.72;;;15.85;62.00
69909;BME280;57190;47.918;8.112;2022-08-01T02:09:49;91137.13;;;15.84;61.69
69909;BME280;57190;47.918;8.112;2022-08-01T02:12:17;91140.94;;;15.78;62.21
69909;BME280;57190;47.918;8.112;2022-08-01T02:14:45;91135.34;;;15.74;62.23
69909;BME280;57190;47.918;8.112;2022-08-01T02:17:12;91137.84;;;15.70;62.41
69909;BME280;57190;47.918;8.112;2022-08-01T02:19:40;91136.53;;;15.68;62.56
69909;BME280;57190;47.918;8.112;2022-08-01T02:22:11;91139.50;;;15.66;62.72
69909;BME280;57190;47.918;8.112;2022-08-01T02:24:52;91140.59;;;15.65;62.58
69909;BME280;57190;47.918;8.112;2022-08-01T02:27:42;91143.88;;;15.62;62.85
69909;BME280;57190;47.918;8.112;2022-08-01T02:30:10;91142.25;;;15.61;63.01
69909;BME280;57190;47.918;8.112;2022-08-01T02:32:43;91133.75;;;15.54;63.16
69909;BME280;57190;47.918;8.112;2022-08-01T02:35:13;91138.63;;;15.52;62.81
69909;BME280;57190;47.918;8.112;2022-08-01T02:37:45;91133.47;;;15.55;62.66
69909;BME280;57190;47.918;8.112;2022-08-01T02:40:12;91136.66;;;15.57;62.73
69909;BME280;57190;47.918;8.112;2022-08-01T02:42:43;91128.53;;;15.63;62.49
69909;BME280;57190;47.918;8.112;2022-08-01T02:45:11;91135.81;;;15.62;62.74
69909;BME280;57190;47.918;8.112;2022-08-01T02:47:39;91133.19;;;15.57;63.13
69909;BME280;57190;47.918;8.112;2022-08-01T02:50:06;91131.59;;;15.56;62.62
69909;BME280;57190;47.918;8.112;2022-08-01T02:52:34;91133.47;;;15.55;62.97
69909;BME280;57190;47.918;8.112;2022-08-01T02:55:01;91130.78;;;15.55;62.65
69909;BME280;57190;47.918;8.112;2022-08-01T02:57:28;91129.38;;;15.39;63.81
69909;BME280;57190;47.918;8.112;2022-08-01T02:59:56;91129.94;;;15.17;64.10
69909;BME280;57190;47.918;8.112;2022-08-01T03:02:24;91128.19;;;15.07;63.96
69909;BME280;57190;47.918;8.112;2022-08-01T03:04:52;91126.59;;;15.06;64.53
69909;BME280;57190;47.918;8.112;2022-08-01T03:07:18;91124.41;;;15.08;64.25
69909;BME280;57190;47.918;8.112;2022-08-01T03:09:45;91129.38;;;14.96;65.10
69909;BME280;57190;47.918;8.112;2022-08-01T03:12:16;91134.75;;;14.96;64.95
69909;BME280;57190;47.918;8.112;2022-08-01T03:14:44;91130.94;;;15.02;64.86
69909;BME280;57190;47.918;8.112;2022-08-01T03:17:12;91141.47;;;14.98;64.93
69909;BME280;57190;47.918;8.112;2022-08-01T03:19:39;91137.06;;;14.83;65.47
69909;BME280;57190;47.918;8.112;2022-08-01T03:22:11;91134.25;;;14.69;65.88
69909;BME280;57190;47.918;8.112;2022-08-01T03:24:40;91132.66;;;14.68;66.04
69909;BME280;57190;47.918;8.112;2022-08-01T03:27:07;91126.72;;;14.71;65.93
69909;BME280;57190;47.918;8.112;2022-08-01T03:29:34;91143.81;;;14.81;65.47
69909;BME280;57190;47.918;8.112;2022-08-01T03:32:01;91137.06;;;14.83;65.46
69909;BME280;57190;47.918;8.112;2022-08-01T03:34:28;91142.13;;;14.85;65.38
69909;BME280;57190;47.918;8.112;2022-08-01T03:37:17;91145.34;;;14.87;65.29
69909;BME280;57190;47.918;8.112;2022-08-01T03:39:54;91139.41;;;14.90;64.93
69909;BME280;57190;47.918;8.112;2022-08-01T03:42:27;91138.25;;;14.96;64.93
69909;BME280;57190;47.918;8.112;2022-08-01T03:44:59;91150.09;;;14.95;65.21
69909;BME280;57190;47.918;8.112;2022-08-01T03:47:33;91142.69;;;14.82;65.30
69909;BME280;57190;47.918;8.112;2022-08-01T03:50:02;91143.91;;;14.70;65.66
69909;BME280;57190;47.918;8.112;2022-08-01T03:52:30;91147.44;;;14.66;65.91
69909;BME280;57190;47.918;8.112;2022-08-01T03:54:59;91141.84;;;14.57;66.23
69909;BME280;57190;47.918;8.112;2022-08-01T03:57:28;91137.06;;;14.54;66.31
69909;BME280;57190;47.918;8.112;2022-08-01T03:59:57;91141.41;;;14.50;66.59
69909;BME280;57190;47.918;8.112;2022-08-01T04:02:23;91136.03;;;14.50;66.33
69909;BME280;57190;47.918;8.112;2022-08-01T04:04:49;91134.94;;;14.51;66.43
69909;BME280;57190;47.918;8.112;2022-08-01T04:07:25;91134.72;;;14.47;66.56
69909;BME280;57190;47.918;8.112;2022-08-01T04:09:51;91133.19;;;14.41;66.73
69909;BME280;57190;47.918;8.112;2022-08-01T04:12:17;91134.50;;;14.43;66.59
69909;BME280;57190;47.918;8.112;2022-08-01T04:14:43;91137.16;;;14.43;66.88
69909;BME280;57190;47.918;8.112;2022-08-01T04:17:08;91130.16;;;14.48;66.65
69909;BME280;57190;47.918;8.112;2022-08-01T04:19:34;91140.31;;;14.51;66.64
69909;BME280;57190;47.918;8.112;2022-08-01T04:22:00;91139.00;;;14.48;66.70
69909;BME280;57190;47.918;8.112;2022-08-01T04:24:26;91137.41;;;14.47;66.89
69909;BME280;57190;47.918;8.112;2022-08-01T04:26:56;91137.63;;;14.51;66.50
69909;BME280;57190;47.918;8.112;2022-08-01T04:29:24;91143.84;;;14.46;67.32
69909;BME280;57190;47.918;8.112;2022-08-01T04:31:53;91134.94;;;14.51;67.16
69909;BME280;57190;47.918;8.112;2022-08-01T04:34:21;91142.38;;;14.59;67.02
69909;BME280;57190;47.918;8.112;2022-08-01T04:36:48;91142.91;;;14.61;67.09
69909;BME280;57190;47.918;8.112;2022-08-01T04:39:16;91134.84;;;14.61;67.42
69909;BME280;57190;47.918;8.112;2022-08-01T04:41:44;91147.50;;;14.60;67.64
69909;BME280;57190;47.918;8.112;2022-08-01T04:44:12;91154.81;;;14.79;67.19
69909;BME280;57190;47.918;8.112;2022-08-01T04:46:38;91153.22;;;15.02;66.59
69909;BME280;57190;47.918;8.112;2022-08-01T04:49:08;91156.16;;;15.25;66.58
69909;BME280;57190;47.918;8.112;2022-08-01T04:51:35;91152.56;;;15.35;66.29
69909;BME280;57190;47.918;8.112;2022-08-01T04:54:01;91151.41;;;15.41;66.13
69909;BME280;57190;47.918;8.112;2022-08-01T04:56:26;91156.06;;;15.54;66.39
69909;BME280;57190;47.918;8.112;2022-08-01T04:58:52;91152.28;;;15.55;66.20
69909;BME280;57190;47.918;8.112;2022-08-01T05:01:38;91146.03;;;15.60;66.22
69909;BME280;57190;47.918;8.112;2022-08-01T05:04:03;91150.19;;;15.71;66.51
69909;BME280;57190;47.918;8.112;2022-08-01T05:06:29;91151.41;;;15.79;65.97
69909;BME280;57190;47.918;8.112;2022-08-01T05:08:54;91150.94;;;15.96;66.38
69909;BME280;57190;47.918;8.112;2022-08-01T05:11:20;91146.97;;;16.08;65.97
69909;BME280;57190;47.918;8.112;2022-08-01T05:13:47;91148.63;;;16.23;65.67
69909;BME280;57190;47.918;8.112;2022-08-01T05:16:13;91144.28;;;16.27;65.33
69909;BME280;57190;47.918;8.112;2022-08-01T05:18:38;91142.28;;;16.32;65.27
69909;BME280;57190;47.918;8.112;2022-08-01T05:21:04;91149.75;;;16.35;65.24
69909;BME280;57190;47.918;8.112;2022-08-01T05:23:29;91150.66;;;16.31;65.55
69909;BME280;57190;47.918;8.112;2022-08-01T05:25:55;91145.00;;;16.32;65.73
69909;BME280;57190;47.918;8.112;2022-08-01T05:28:20;91147.59;;;16.38;65.31
69909;BME280;57190;47.918;8.112;2022-08-01T05:30:46;91147.31;;;16.53;65.53
69909;BME280;57190;47.918;8.112;2022-08-01T05:33:11;91142.25;;;16.65;65.74
69909;BME280;57190;47.918;8.112;2022-08-01T05:35:37;91146.16;;;16.73;65.71
69909;BME280;57190;47.918;8.112;2022-08-01T05:38:03;91144.16;;;16.79;65.11
69909;BME280;57190;47.918;8.112;2022-08-01T05:40:28;91137.59;;;16.85;64.88
69909;BME280;57190;47.918;8.112;2022-08-01T05:42:54;91131.72;;;16.97;64.95
69909;BME280;57190;47.918;8.112;2022-08-01T05:45:19;91132.63;;;17.06;65.10
69909;BME280;57190;47.918;8.112;2022-08-01T05:47:45;91134.81;;;17.18;64.76
69909;BME280;57190;47.918;8.112;2022-08-01T05:50:10;91137.19;;;17.34;64.90
69909;BME280;57190;47.918;8.112;2022-08-01T05:52:36;91137.00;;;17.44;64.42
69909;BME280;57190;47.918;8.112;2022-08-01T05:55:02;91135.69;;;17.55;63.94
69909;BME280;57190;47.918;8.112;2022-08-01T05:57:28;91135.75;;;17.64;63.55
69909;BME280;57190;47.918;8.112;2022-08-01T05:59:53;91136.03;;;17.76;63.04
69909;BME280;57190;47.918;8.112;2022-08-01T06:02:18;91136.59;;;17.87;63.40
69909;BME280;57190;47.918;8.112;2022-08-01T06:04:44;91137.19;;;17.98;63.06
69909;BME280;57190;47.918;8.112;2022-08-01T06:07:10;91140.44;;;18.09;62.73
69909;BME280;57190;47.918;8.112;2022-08-01T06:09:35;91131.94;;;18.16;62.20
69909;BME280;57190;47.918;8.112;2022-08-01T06:12:01;91140.28;;;18.28;60.63
69909;BME280;57190;47.918;8.112;2022-08-01T06:14:26;91133.66;;;18.34;60.06
69909;BME280;57190;47.918;8.112;2022-08-01T06:16:52;91143.34;;;18.35;60.08
69909;BME280;57190;47.918;8.112;2022-08-01T06:19:17;91141.59;;;18.39;60.21
69909;BME280;57190;47.918;8.112;2022-08-01T06:21:43;91135.59;;;18.43;60.71
69909;BME280;57190;47.918;8.112;2022-08-01T06:24:08;91141.19;;;18.46;60.96
69909;BME280;57190;47.918;8.112;2022-08-01T06:26:34;91142.47;;;18.49;60.75
69909;BME280;57190;47.918;8.112;2022-08-01T06:29:01;91145.06;;;18.54;60.79
69909;BME280;57190;47.918;8.112;2022-08-01T06:31:27;91141.13;;;18.60;61.06
69909;BME280;57190;47.918;8.112;2022-08-01T06:33:52;91144.00;;;18.64;61.26
69909;BME280;57190;47.918;8.112;2022-08-01T06:36:18;91140.09;;;18.79;60.24
69909;BME280;57190;47.918;8.112;2022-08-01T06:38:44;91145.19;;;18.80;60.22
69909;BME280;57190;47.918;8.112;2022-08-01T06:41:10;91142.66;;;18.84;59.36
69909;BME280;57190;47.918;8.112;2022-08-01T06:43:35;91138.53;;;18.86;59.29
69909;BME280;57190;47.918;8.112;2022-08-01T06:46:01;91136.22;;;18.94;58.90
69909;BME280;57190;47.918;8.112;2022-08-01T06:48:26;91139.91;;;19.07;58.13
69909;BME280;57190;47.918;8.112;2022-08-01T06:50:52;91137.75;;;19.17;58.41
69909;BME280;57190;47.918;8.112;2022-08-01T06:53:36;91135.56;;;19.28;58.05
69909;BME280;57190;47.918;8.112;2022-08-01T06:56:02;91140.69;;;19.39;58.09
69909;BME280;57190;47.918;8.112;2022-08-01T06:58:28;91137.50;;;19.45;57.75
69909;BME280;57190;47.918;8.112;2022-08-01T07:00:53;91138.66;;;19.53;57.56
69909;BME280;57190;47.918;8.112;2022-08-01T07:03:19;91142.63;;;19.64;57.94
69909;BME280;57190;47.918;8.112;2022-08-01T07:05:44;91142.22;;;19.80;56.84
69909;BME280;57190;47.918;8.112;2022-08-01T07:08:10;91139.19;;;19.90;55.87
69909;BME280;57190;47.918;8.112;2022-08-01T07:10:35;91145.28;;;20.05;55.62
69909;BME280;57190;47.918;8.112;2022-08-01T07:13:01;91149.56;;;20.23;54.58
69909;BME280;57190;47.918;8.112;2022-08-01T07:15:26;91143.53;;;20.35;53.34
69909;BME280;57190;47.918;8.112;2022-08-01T07:17:52;91143.84;;;20.42;53.18
69909;BME280;57190;47.918;8.112;2022-08-01T07:20:18;91144.44;;;20.48;53.17
69909;BME280;57190;47.918;8.112;2022-08-01T07:22:44;91137.28;;;20.52;52.77
69909;BME280;57190;47.918;8.112;2022-08-01T07:25:09;91132.94;;;20.69;52.82
69909;BME280;57190;47.918;8.112;2022-08-01T07:27:36;91135.84;;;20.81;51.48
69909;BME280;57190;47.918;8.112;2022-08-01T07:30:02;91141.69;;;20.83;51.09
69909;BME280;57190;47.918;8.112;2022-08-01T07:32:28;91136.63;;;20.82;51.04
69909;BME280;57190;47.918;8.112;2022-08-01T07:34:56;91144.06;;;20.94;50.59
69909;BME280;57190;47.918;8.112;2022-08-01T07:37:22;91135.88;;;21.11;50.61
69909;BME280;57190;47.918;8.112;2022-08-01T07:39:49;91124.69;;;21.22;50.19
69909;BME280;57190;47.918;8.112;2022-08-01T07:42:14;91136.25;;;21.40;49.40
69909;BME280;57190;47.918;8.112;2022-08-01T07:47:06;91126.41;;;21.65;50.00
69909;BME280;57190;47.918;8.112;2022-08-01T07:49:32;91125.91;;;21.93;49.87
69909;BME280;57190;47.918;8.112;2022-08-01T07:51:57;91128.44;;;21.98;50.31
69909;BME280;57190;47.918;8.112;2022-08-01T07:54:23;91120.28;;;21.98;49.68
69909;BME280;57190;47.918;8.112;2022-08-01T07:56:54;91119.47;;;21.97;50.29
69909;BME280;57190;47.918;8.112;2022-08-01T07:59:19;91123.44;;;22.00;49.85
69909;BME280;57190;47.918;8.112;2022-08-01T08:01:51;91121.59;;;21.92;49.10
69909;BME280;57190;47.918;8.112;2022-08-01T08:04:17;91117.22;;;21.99;48.69
69909;BME280;57190;47.918;8.112;2022-08-01T08:06:43;91115.16;;;21.96;48.93
69909;BME280;57190;47.918;8.112;2022-08-01T08:09:10;91116.59;;;22.03;49.45
69909;BME280;57190;47.918;8.112;2022-08-01T08:11:35;91114.03;;;21.97;49.12
69909;BME280;57190;47.918;8.112;2022-08-01T08:14:01;91113.41;;;22.01;48.95
69909;BME280;57190;47.918;8.112;2022-08-01T08:16:26;91120.72;;;22.21;49.39
69909;BME280;57190;47.918;8.112;2022-08-01T08:18:52;91123.97;;;22.36;48.92
69909;BME280;57190;47.918;8.112;2022-08-01T08:21:17;91119.50;;;22.40;48.14
69909;BME280;57190;47.918;8.112;2022-08-01T08:23:43;91112.94;;;22.41;47.94
69909;BME280;57190;47.918;8.112;2022-08-01T08:26:26;91115.00;;;22.44;47.93
69909;BME280;57190;47.918;8.112;2022-08-01T08:28:52;91111.00;;;22.41;47.77
69909;BME280;57190;47.918;8.112;2022-08-01T08:31:17;91109.69;;;22.48;47.88
69909;BME280;57190;47.918;8.112;2022-08-01T08:33:43;91115.03;;;22.35;48.29
69909;BME280;57190;47.918;8.112;2022-08-01T08:36:08;91109.69;;;22.48;48.15
69909;BME280;57190;47.918;8.112;2022-08-01T08:38:36;91108.88;;;22.47;47.90
69909;BME280;57190;47.918;8.112;2022-08-01T08:41:01;91119.50;;;22.40;48.09
69909;BME280;57190;47.918;8.112;2022-08-01T08:43:27;91113.28;;;22.39;47.64
69909;BME280;57190;47.918;8.112;2022-08-01T08:45:53;91114.44;;;22.51;47.20
69909;BME280;57190;47.918;8.112;2022-08-01T08:48:19;91117.44;;;22.70;46.71
69909;BME280;57190;47.918;8.112;2022-08-01T08:50:47;91121.88;;;22.75;46.39
69909;BME280;57190;47.918;8.112;2022-08-01T08:53:13;91107.81;;;22.73;46.24
69909;BME280;57190;47.918;8.112;2022-08-01T08:55:42;91108.06;;;22.80;46.74
69909;BME280;57190;47.918;8.112;2022-08-01T08:58:13;91116.94;;;22.89;46.11
69909;BME280;57190;47.918;8.112;2022-08-01T09:00:40;91116.50;;;23.00;45.59
69909;BME280;57190;47.918;8.112;2022-08-01T09:03:06;91117.28;;;23.00;43.93
69909;BME280;57190;47.918;8.112;2022-08-01T09:05:31;91115.69;;;22.87;44.25
69909;BME280;57190;47.918;8.112;2022-08-01T09:07:57;91113.66;;;23.08;44.79
69909;BME280;57190;47.918;8.112;2022-08-01T09:10:22;91121.75;;;23.17;43.64
69909;BME280;57190;47.918;8.112;2022-08-01T09:13:10;91115.91;;;22.94;44.58
69909;BME280;57190;47.918;8.112;2022-08-01T09:15:45;91121.97;;;22.66;44.97
69909;BME280;57190;47.918;8.112;2022-08-01T09:18:36;91124.28;;;22.43;45.59
69909;BME280;57190;47.918;8.112;2022-08-01T09:23:44;91123.31;;;22.39;45.57
69909;BME280;57190;47.918;8.112;2022-08-01T09:26:12;91120.69;;;22.51;44.70
69909;BME280;57190;47.918;8.112;2022-08-01T09:28:39;91121.97;;;22.66;45.41
69909;BME280;57190;47.918;8.112;2022-08-01T09:31:07;91124.66;;;22.87;44.28
69909;BME280;57190;47.918;8.112;2022-08-01T09:33:59;91122.34;;;23.23;44.24
69909;BME280;57190;47.918;8.112;2022-08-01T09:36:46;91120.66;;;23.18;44.81
69909;BME280;57190;47.918;8.112;2022-08-01T09:39:17;91121.81;;;22.96;44.85
69909;BME280;57190;47.918;8.112;2022-08-01T09:41:43;91122.66;;;23.09;44.55
69909;BME280;57190;47.918;8.112;2022-08-01T09:44:09;91116.03;;;23.56;43.81
69909;BME280;57190;47.918;8.112;2022-08-01T09:46:34;91114.41;;;23.67;43.64
69909;BME280;57190;47.918;8.112;2022-08-01T09:49:05;91117.91;;;23.93;42.60
69909;BME280;57190;47.918;8.112;2022-08-01T09:51:34;91112.03;;;23.66;42.94
69909;BME280;57190;47.918;8.112;2022-08-01T09:54:02;91114.63;;;23.87;42.99
69909;BME280;57190;47.918;8.112;2022-08-01T09:56:36;91116.56;;;23.99;42.57
69909;BME280;57190;47.918;8.112;2022-08-01T09:59:02;91107.78;;;23.93;42.56
69909;BME280;57190;47.918;8.112;2022-08-01T10:01:46;91116.06;;;24.22;42.93
69909;BME280;57190;47.918;8.112;2022-08-01T10:04:12;91112.47;;;24.46;41.74
69909;BME280;57190;47.918;8.112;2022-08-01T10:06:44;91112.84;;;24.32;41.54
69909;BME280;57190;47.918;8.112;2022-08-01T10:09:12;91108.03;;;24.41;41.38
69909;BME280;57190;47.918;8.112;2022-08-01T10:11:39;91109.28;;;24.44;41.69
69909;BME280;57190;47.918;8.112;2022-08-01T10:14:06;91112.00;;;24.44;41.83
69909;BME280;57190;47.918;8.112;2022-08-01T10:16:34;91108.22;;;24.61;40.87
69909;BME280;57190;47.918;8.112;2022-08-01T10:19:02;91091.03;;;24.73;41.18
69909;BME280;57190;47.918;8.112;2022-08-01T10:21:29;91099.56;;;24.71;41.62
69909;BME280;57190;47.918;8.112;2022-08-01T10:23:58;91099.13;;;24.85;41.17
69909;BME280;57190;47.918;8.112;2022-08-01T10:26:25;91096.31;;;24.82;40.84
69909;BME280;57190;47.918;8.112;2022-08-01T10:28:52;91092.84;;;24.69;41.07
69909;BME280;57190;47.918;8.112;2022-08-01T10:31:19;91086.97;;;24.83;41.71
69909;BME280;57190;47.918;8.112;2022-08-01T10:33:45;91098.06;;;25.18;41.35
69909;BME280;57190;47.918;8.112;2022-08-01T10:36:11;91097.59;;;25.16;40.51
69909;BME280;57190;47.918;8.112;2022-08-01T10:38:37;91093.38;;;25.19;40.43
69909;BME280;57190;47.918;8.112;2022-08-01T10:41:03;91083.69;;;25.21;40.16
69909;BME280;57190;47.918;8.112;2022-08-01T10:43:29;91087.00;;;25.15;40.83
69909;BME280;57190;47.918;8.112;2022-08-01T10:45:55;91081.75;;;25.38;40.78
69909;BME280;57190;47.918;8.112;2022-08-01T10:49:12;91089.00;;;25.46;39.15
69909;BME280;57190;47.918;8.112;2022-08-01T10:51:13;91087.13;;;25.34;40.51
69909;BME280;57190;47.918;8.112;2022-08-01T10:53:51;91088.38;;;25.53;40.13
69909;BME280;57190;47.918;8.112;2022-08-01T10:56:18;91085.44;;;25.62;39.12
69909;BME280;57190;47.918;8.112;2022-08-01T10:58:46;91089.06;;;25.66;40.35
69909;BME280;57190;47.918;8.112;2022-08-01T11:03:41;91087.13;;;25.66;39.50
69909;BME280;57190;47.918;8.112;2022-08-01T11:06:15;91079.81;;;25.54;39.04
69909;BME280;57190;47.918;8.112;2022-08-01T11:08:41;91087.31;;;25.57;38.69
69909;BME280;57190;47.918;8.112;2022-08-01T11:11:07;91082.22;;;25.40;38.99
69909;BME280;57190;47.918;8.112;2022-08-01T11:16:49;91088.91;;;25.58;38.74
69909;BME280;57190;47.918;8.112;2022-08-01T11:19:15;91079.13;;;25.41;38.56
69909;BME280;57190;47.918;8.112;2022-08-01T11:24:54;91070.75;;;25.34;39.06
69909;BME280;57190;47.918;8.112;2022-08-01T11:27:31;91067.22;;;25.34;38.36
69909;BME280;57190;47.918;8.112;2022-08-01T11:32:54;91069.75;;;25.74;38.28
69909;BME280;57190;47.918;8.112;2022-08-01T11:35:21;91066.81;;;25.83;37.93
69909;BME280;57190;47.918;8.112;2022-08-01T11:37:50;91062.81;;;25.97;37.74
69909;BME280;57190;47.918;8.112;2022-08-01T11:40:25;91064.47;;;26.01;36.27
69909;BME280;57190;47.918;8.112;2022-08-01T11:45:55;91046.47;;;25.81;36.55
69909;BME280;57190;47.918;8.112;2022-08-01T11:48:25;91053.88;;;25.80;37.13
69909;BME280;57190;47.918;8.112;2022-08-01T11:50:53;91057.69;;;26.11;37.52
69909;BME280;57190;47.918;8.112;2022-08-01T11:53:19;91048.53;;;26.03;35.60
69909;BME280;57190;47.918;8.112;2022-08-01T11:55:50;91049.47;;;26.11;36.39
69909;BME280;57190;47.918;8.112;2022-08-01T11:58:21;91056.25;;;26.17;33.20
69909;BME280;57190;47.918;8.112;2022-08-01T12:00:52;91052.22;;;26.11;34.44
69909;BME280;57190;47.918;8.112;2022-08-01T12:03:26;91052.31;;;25.99;34.84
69909;BME280;57190;47.918;8.112;2022-08-01T12:05:53;91050.06;;;25.85;36.28
69909;BME280;57190;47.918;8.112;2022-08-01T12:08:30;91054.44;;;26.05;36.03
69909;BME280;57190;47.918;8.112;2022-08-01T12:11:03;91053.03;;;26.12;35.25
69909;BME280;57190;47.918;8.112;2022-08-01T12:13:49;91048.09;;;26.01;35.68
69909;BME280;57190;47.918;8.112;2022-08-01T12:16:17;91051.06;;;26.12;35.51
69909;BME280;57190;47.918;8.112;2022-08-01T12:18:43;91049.84;;;26.10;35.75
69909;BME280;57190;47.918;8.112;2022-08-01T12:21:08;91049.66;;;26.18;36.05
69909;BME280;57190;47.918;8.112;2022-08-01T12:23:34;91049.47;;;26.11;36.02
69909;BME280;57190;47.918;8.112;2022-08-01T12:25:59;91058.56;;;25.99;35.76
69909;BME280;57190;47.918;8.112;2022-08-01T12:28:26;91046.50;;;26.00;35.40
69909;BME280;57190;47.918;8.112;2022-08-01T12:30:51;91050.38;;;25.80;35.52
69909;BME280;57190;47.918;8.112;2022-08-01T12:33:19;91053.56;;;25.66;35.54
69909;BME280;57190;47.918;8.112;2022-08-01T12:35:45;91056.38;;;25.37;35.88
69909;BME280;57190;47.918;8.112;2022-08-01T12:38:17;91050.66;;;25.58;35.64
69909;BME280;57190;47.918;8.112;2022-08-01T12:40:44;91046.47;;;25.81;35.78
69909;BME280;57190;47.918;8.112;2022-08-01T12:43:17;91048.47;;;25.84;35.46
69909;BME280;57190;47.918;8.112;2022-08-01T12:45:44;91054.09;;;25.55;35.35
69909;BME280;57190;47.918;8.112;2022-08-01T12:48:13;91053.22;;;25.35;36.44
69909;BME280;57190;47.918;8.112;2022-08-01T12:50:40;91048.03;;;25.30;36.13
69909;BME280;57190;47.918;8.112;2022-08-01T12:53:08;91055.16;;;25.19;36.15
69909;BME280;57190;47.918;8.112;2022-08-01T12:55:47;91046.25;;;25.38;36.53
69909;BME280;57190;47.918;8.112;2022-08-01T12:58:14;91043.72;;;25.45;36.96
69909;BME280;57190;47.918;8.112;2022-08-01T13:00:41;91045.63;;;25.61;35.63
69909;BME280;57190;47.918;8.112;2022-08-01T13:05:47;91053.88;;;26.55;34.68
69909;BME280;57190;47.918;8.112;2022-08-01T13:08:18;91049.97;;;26.76;34.21
69909;BME280;57190;47.918;8.112;2022-08-01T13:10:45;91048.94;;;27.04;34.16
69909;BME280;57190;47.918;8.112;2022-08-01T13:13:11;91037.31;;;27.57;32.66
69909;BME280;57190;47.918;8.112;2022-08-01T13:15:39;91038.13;;;27.88;32.47
69909;BME280;57190;47.918;8.112;2022-08-01T13:18:30;91045.03;;;28.05;32.30
69909;BME280;57190;47.918;8.112;2022-08-01T13:21:17;91044.78;;;28.44;30.77
69909;BME280;57190;47.918;8.112;2022-08-01T13:29:28;91033.63;;;28.30;31.84
69909;BME280;57190;47.918;8.112;2022-08-01T13:31:54;91023.78;;;28.25;31.93
69909;BME280;57190;47.918;8.112;2022-08-01T13:34:30;91034.25;;;28.16;32.06
69909;BME280;57190;47.918;8.112;2022-08-01T13:36:56;91028.28;;;28.40;32.00
69909;BME280;57190;47.918;8.112;2022-08-01T13:39:22;91026.97;;;28.61;31.65